createdAt,value
2022-09-10T00:01:15.330Z,5
2022-09-10T00:07:15.367Z,4
2022-09-10T00:13:15.362Z,3
2022-09-10T00:19:15.352Z,4
2022-09-10T00:25:15.386Z,5
2022-09-10T00:31:15.450Z,6
2022-09-10T00:37:15.344Z,5
2022-09-10T00:43:15.372Z,3
2022-09-10T00:49:15.368Z,5
2022-09-10T00:55:15.349Z,4
2022-09-10T01:01:15.393Z,5
2022-09-10T01:07:15.339Z,3
2022-09-10T01:13:15.337Z,4
2022-09-10T01:19:15.364Z,4
2022-09-10T01:29:15.363Z,3
2022-09-10T01:35:15.378Z,5
2022-09-10T01:41:15.360Z,2
2022-09-10T01:47:15.360Z,3
2022-09-10T01:53:15.369Z,3
2022-09-10T01:59:15.365Z,4
2022-09-10T02:05:15.348Z,4
2022-09-10T02:11:15.382Z,3
2022-09-10T02:17:15.378Z,3
2022-09-10T02:23:15.365Z,3
2022-09-10T02:29:15.376Z,3
2022-09-10T02:35:15.354Z,3
2022-09-10T02:41:15.369Z,3
2022-09-10T02:47:15.370Z,3
2022-09-10T02:53:15.357Z,5
2022-09-10T02:59:15.366Z,4
2022-09-10T03:05:15.526Z,4
2022-09-10T03:11:15.444Z,3
2022-09-10T03:17:15.378Z,2
2022-09-10T03:23:15.413Z,3
2022-09-10T03:29:15.474Z,3
2022-09-10T03:35:15.453Z,3
2022-09-10T03:41:15.386Z,4
2022-09-10T03:47:15.357Z,4
2022-09-10T03:53:15.361Z,4
2022-09-10T03:59:15.408Z,4
2022-09-10T04:05:15.409Z,3
2022-09-10T04:11:15.380Z,4
2022-09-10T04:17:15.400Z,3
2022-09-10T04:23:15.373Z,4
2022-09-10T04:29:15.386Z,3
2022-09-10T04:35:15.429Z,4
2022-09-10T04:41:15.387Z,4
2022-09-10T04:47:15.367Z,4
2022-09-10T04:53:15.401Z,3
2022-09-10T04:59:15.360Z,3
2022-09-10T05:05:15.390Z,3
2022-09-10T05:11:15.390Z,4
2022-09-10T05:17:15.376Z,3
2022-09-10T05:23:15.387Z,4
2022-09-10T05:29:15.398Z,4
2022-09-10T05:35:15.373Z,3
2022-09-10T05:41:15.380Z,4
2022-09-10T05:47:15.398Z,2
2022-09-10T05:53:15.387Z,4
2022-09-10T05:59:15.401Z,3
2022-09-10T06:05:15.399Z,2
2022-09-10T06:11:15.375Z,6
2022-09-10T06:17:15.385Z,3
2022-09-10T06:23:15.402Z,4
2022-09-10T06:29:15.377Z,5
2022-09-10T06:35:15.392Z,3
2022-09-10T06:41:15.411Z,4
2022-09-10T06:48:12.751Z,3
2022-09-10T06:53:15.388Z,3
2022-09-10T06:59:15.402Z,3
2022-09-10T07:05:15.394Z,4
2022-09-10T07:11:15.402Z,3
2022-09-10T07:17:15.437Z,2
2022-09-10T07:23:15.417Z,3
2022-09-10T07:29:15.397Z,3
2022-09-10T07:35:15.414Z,3
2022-09-10T07:41:15.421Z,3
2022-09-10T07:47:15.373Z,3
2022-09-10T07:53:15.523Z,2
2022-09-10T07:59:15.515Z,4
2022-09-10T08:05:15.549Z,1
2022-09-10T08:11:15.445Z,2
2022-09-10T08:17:15.397Z,2
2022-09-10T08:23:15.382Z,1
2022-09-10T08:29:15.418Z,1
2022-09-10T08:35:15.420Z,1
2022-09-10T08:41:15.413Z,1
2022-09-10T08:47:15.442Z,1
2022-09-10T08:53:15.395Z,1
2022-09-10T08:59:15.435Z,1
2022-09-10T09:05:15.459Z,1
2022-09-10T09:11:15.404Z,1
2022-09-10T09:17:15.427Z,1
2022-09-10T09:23:15.429Z,2
2022-09-10T09:29:15.398Z,3
2022-09-10T09:35:15.419Z,3
2022-09-10T09:41:15.461Z,4
2022-09-10T09:47:15.426Z,4
2022-09-10T09:53:15.442Z,3
2022-09-10T09:59:15.451Z,3
2022-09-10T10:05:15.448Z,3
2022-09-10T10:11:15.413Z,2
2022-09-10T10:17:15.451Z,2
2022-09-10T10:23:15.441Z,3
2022-09-10T10:29:15.445Z,3
2022-09-10T10:35:15.469Z,3
2022-09-10T10:41:15.427Z,3
2022-09-10T10:47:15.425Z,3
2022-09-10T10:53:15.494Z,2
2022-09-10T10:59:15.423Z,2
2022-09-10T11:05:15.429Z,2
2022-09-10T11:11:15.474Z,4
2022-09-10T11:17:15.443Z,3
2022-09-10T11:23:15.450Z,3
2022-09-10T11:29:15.468Z,4
2022-09-10T11:35:15.428Z,3
2022-09-10T11:41:15.458Z,5
2022-09-10T11:47:15.477Z,5
2022-09-10T11:53:15.447Z,3
2022-09-10T11:59:15.455Z,4
2022-09-10T12:05:15.478Z,3
2022-09-10T12:11:15.479Z,5
2022-09-10T12:17:15.432Z,4
2022-09-10T12:23:15.459Z,5
2022-09-10T12:29:15.461Z,3
2022-09-10T12:35:15.528Z,3
2022-09-10T12:41:15.487Z,4
2022-09-10T12:47:15.455Z,4
2022-09-10T12:53:15.454Z,5
2022-09-10T12:59:15.496Z,5
2022-09-10T13:05:15.461Z,5
2022-09-10T13:11:15.461Z,4
2022-09-10T13:17:15.493Z,5
2022-09-10T13:23:15.460Z,5
2022-09-10T13:29:15.457Z,4
2022-09-10T13:35:15.489Z,5
2022-09-10T13:41:15.477Z,6
2022-09-10T13:47:15.456Z,5
2022-09-10T13:53:15.494Z,5
2022-09-10T13:59:15.495Z,5
2022-09-10T14:05:15.479Z,7
2022-09-10T14:11:15.529Z,6
2022-09-10T14:17:15.472Z,7
2022-09-10T14:23:15.473Z,6
2022-09-10T14:29:15.511Z,6
2022-09-10T14:35:15.489Z,8
2022-09-10T14:41:15.481Z,7
2022-09-10T14:47:15.512Z,9
2022-09-10T14:53:15.475Z,8
2022-09-10T14:59:15.516Z,8
2022-09-10T15:05:15.575Z,7
2022-09-10T15:11:15.482Z,5
2022-09-10T15:17:15.495Z,7
2022-09-10T15:23:15.519Z,7
2022-09-10T15:29:15.508Z,5
2022-09-10T15:35:15.484Z,7
2022-09-10T15:41:15.534Z,8
2022-09-10T15:47:15.481Z,8
2022-09-10T15:53:15.483Z,8
2022-09-10T15:59:15.544Z,6
2022-09-10T16:05:15.507Z,6
2022-09-10T16:11:15.494Z,8
2022-09-10T16:17:15.513Z,6
2022-09-10T16:23:15.499Z,7
2022-09-10T16:29:15.514Z,7
2022-09-10T16:35:15.516Z,8
2022-09-10T16:41:15.509Z,8
2022-09-10T16:47:15.483Z,10
2022-09-10T16:53:15.547Z,7
2022-09-10T16:59:15.617Z,9
2022-09-10T17:05:15.511Z,7
2022-09-10T17:11:15.561Z,7
2022-09-10T17:17:15.520Z,8
2022-09-10T17:23:15.522Z,7
2022-09-10T17:29:15.592Z,7
2022-09-10T17:35:15.510Z,7
2022-09-10T17:41:15.534Z,11
2022-09-10T17:47:15.532Z,9
2022-09-10T17:53:15.498Z,9
2022-09-10T17:59:15.521Z,8
2022-09-10T18:05:15.549Z,11
2022-09-10T18:11:15.508Z,9
2022-09-10T18:17:15.520Z,8
2022-09-10T18:23:15.547Z,13
2022-09-10T18:29:15.516Z,11
2022-09-10T18:35:15.507Z,13
2022-09-10T18:41:15.571Z,15
2022-09-10T18:47:34.265Z,18
2022-09-10T18:53:15.506Z,20
2022-09-10T18:59:15.557Z,21
2022-09-10T19:05:15.530Z,21
2022-09-10T19:11:15.532Z,23
2022-09-10T19:17:15.540Z,23
2022-09-10T19:23:19.550Z,23
2022-09-10T19:29:15.533Z,25
2022-09-10T19:35:15.539Z,29
2022-09-10T19:41:15.566Z,28
2022-09-10T19:47:15.515Z,27
2022-09-10T19:53:15.559Z,25
2022-09-10T19:59:15.555Z,27
2022-09-10T20:05:15.529Z,26
2022-09-10T20:11:15.568Z,28
2022-09-10T20:17:15.519Z,31
2022-09-10T20:23:15.622Z,23
2022-09-10T20:29:15.569Z,26
2022-09-10T20:35:15.589Z,25
2022-09-10T20:41:15.535Z,28
2022-09-10T20:47:15.539Z,34
2022-09-10T20:53:15.516Z,32
2022-09-10T20:59:15.607Z,38
2022-09-10T21:05:15.567Z,37
2022-09-10T21:11:15.882Z,34
2022-09-10T21:17:15.538Z,35
2022-09-10T21:23:15.546Z,36
2022-09-10T21:29:15.536Z,41
2022-09-10T21:35:15.543Z,44
2022-09-10T21:41:15.556Z,44
2022-09-10T21:47:15.531Z,46
2022-09-10T21:53:15.521Z,46
2022-09-10T21:59:15.561Z,46
2022-09-10T22:05:15.537Z,53
2022-09-10T22:11:21.903Z,53
2022-09-10T22:17:15.558Z,53
2022-09-10T22:23:15.548Z,60
2022-09-10T22:29:15.569Z,63
2022-09-10T22:35:15.576Z,66
2022-09-10T22:41:15.568Z,68
2022-09-10T22:47:15.551Z,67
2022-09-10T22:53:15.562Z,65
2022-09-10T22:59:15.554Z,55
2022-09-10T23:05:15.543Z,55
2022-09-10T23:11:19.709Z,55
2022-09-10T23:17:18.510Z,50
2022-09-10T23:23:15.548Z,44
2022-09-10T23:29:15.571Z,44
2022-09-10T23:35:15.539Z,44
2022-09-10T23:41:15.554Z,48
2022-09-10T23:47:15.569Z,45
2022-09-10T23:53:15.552Z,41
2022-09-10T23:59:15.535Z,40
